Time;durP1;ratioP1;P1;durP2;ratioP2;P2;SDS_P1;SDS_P2;PMS_P1;PMS_P2;Temp;Humidity;BMP_temperature;BMP_pressure;BME280_temperature;BME280_humidity;BME280_pressure;Samples;Min_cycle;Max_cycle;Signal;HPM_P1;HPM_P2
2021/04/23 16:21:40;;;;;;;1999.90;999.90;;;;;;;13.21;73.68;96064.09;5096200;27;20920;-59
2021/04/23 16:24:08;;;;;;;1999.90;999.90;;;;;;;13.38;73.12;96063.47;5063674;28;20192;-60
2021/04/23 16:26:35;;;;;;;1999.90;999.90;;;;;;;13.62;72.74;96057.94;5063792;28;20235;-61
2021/04/23 16:29:02;;;;;;;1999.90;999.90;;;;;;;14.00;72.12;96058.28;5063594;28;20212;-62
2021/04/23 16:31:30;;;;;;;1999.90;999.90;;;;;;;14.61;69.20;96058.25;5063721;28;20196;-61
2021/04/23 16:33:56;;;;;;;1999.90;999.90;;;;;;;15.46;66.41;96063.84;5063646;27;20196;-61
2021/04/23 16:36:23;;;;;;;1999.90;999.90;;;;;;;15.54;64.36;96062.34;5063916;28;20300;-59
2021/04/23 16:38:51;;;;;;;1999.90;999.90;;;;;;;15.54;65.25;96060.50;5063511;28;20272;-61
2021/04/23 16:41:18;;;;;;;1999.90;999.90;;;;;;;15.76;64.47;96065.53;5063460;28;20220;-60
2021/04/23 16:43:45;;;;;;;1999.90;999.90;;;;;;;15.96;63.63;96073.81;5063566;28;20245;-61
2021/04/23 16:46:11;;;;;;;1999.90;999.90;;;;;;;15.70;63.94;96071.25;5063365;28;20618;-60
2021/04/23 16:48:39;;;;;;;1999.90;999.90;;;;;;;15.62;64.56;96064.94;5063371;28;20220;-62
2021/04/23 16:51:06;;;;;;;1999.90;999.90;;;;;;;15.00;65.53;96075.69;5063510;28;20551;-60
2021/04/23 16:53:32;;;;;;;1999.90;999.90;;;;;;;14.50;67.59;96075.28;5063481;28;20189;-59
2021/04/23 16:56:00;;;;;;;1999.90;999.90;;;;;;;13.99;69.24;96070.63;5063263;28;20189;-60
2021/04/23 16:58:27;;;;;;;1999.90;999.90;;;;;;;13.81;69.64;96082.03;5063857;28;20353;-59
2021/04/23 17:00:54;;;;;;;1999.90;999.90;;;;;;;13.55;70.13;96081.13;5063414;28;20619;-60
2021/04/23 17:03:21;;;;;;;1999.90;999.90;;;;;;;13.39;70.51;96083.31;5063515;28;20196;-60
2021/04/23 17:05:48;;;;;;;1999.90;999.90;;;;;;;13.12;71.38;96081.53;5057923;27;20195;-61
2021/04/23 17:08:35;;;;;;;1999.90;999.90;;;;;;;12.93;71.93;96088.72;5138244;27;20576;-62
2021/04/23 17:12:23;;;;;;;;;;;;;;;12.76;72.46;96084.09;5070188;27;10833;-61
2021/04/23 17:14:50;;;;;;;;;;;;;;;12.44;73.81;96086.84;5064850;28;11271;-61
2021/04/23 17:17:16;;;;;;;;;;;;;;;12.25;74.80;96089.53;5066557;28;1121;-60
2021/04/23 17:19:42;;;;;;;;;;;;;;;12.13;75.48;96093.66;5067167;28;1129;-61
2021/04/23 17:22:09;;;;;;;;;;;;;;;12.01;76.22;96099.31;5068360;28;1088;-63
2021/04/23 17:24:36;;;;;;;;;;;;;;;11.84;76.97;96105.09;5067997;28;1069;-61
2021/04/23 17:27:02;;;;;;;;;;;;;;;11.76;77.40;96108.31;5068304;28;1292;-63
2021/04/23 17:29:29;;;;;;;;;;;;;;;11.57;78.44;96110.16;5068021;28;1069;-62
2021/04/23 17:31:56;;;;;;;;;;;;;;;11.49;78.71;96106.38;5068139;28;1985;-61
2021/04/23 17:34:23;;;;;;;;;;;;;;;11.35;79.70;96113.38;5068191;28;1061;-61
2021/04/23 17:36:50;;;;;;;;;;;;;;;11.34;79.71;96121.44;5067992;28;1080;-61
2021/04/23 17:39:17;;;;;;;;;;;;;;;11.31;79.66;96127.97;5068266;28;1084;-60
2021/04/23 17:41:44;;;;;;;;;;;;;;;11.15;80.55;96132.63;5068411;28;1339;-60
2021/04/23 17:44:11;;;;;;;;;;;;;;;11.00;81.04;96138.03;5068104;28;1499;-59
2021/04/23 17:46:38;;;;;;;;;;;;;;;10.98;81.34;96134.91;5067962;28;1033;-61
2021/04/23 17:49:05;;;;;;;;;;;;;;;10.82;81.70;96141.34;5067871;28;1074;-58
2021/04/23 17:51:32;;;;;;;;;;;;;;;10.73;81.96;96153.44;5067884;28;1902;-59
2021/04/23 17:53:58;;;;;;;;;;;;;;;10.77;81.52;96159.63;5067873;28;1128;-60
2021/04/23 17:56:24;;;;;;;;;;;;;;;10.77;81.70;96167.41;5067691;28;1089;-60
2021/04/23 17:58:51;;;;;;;;;;;;;;;10.66;82.37;96166.00;5067587;28;1132;-60
2021/04/23 18:01:17;;;;;;;;;;;;;;;10.45;83.01;96177.63;5067698;28;1125;-60
2021/04/23 18:03:45;;;;;;;;;;;;;;;10.25;83.93;96181.22;5067783;28;1469;-61
2021/04/23 18:06:11;;;;;;;;;;;;;;;10.17;84.72;96185.16;5067423;28;1070;-60
2021/04/23 18:08:37;;;;;;;;;;;;;;;10.17;84.38;96195.53;5067606;28;1033;-61
2021/04/23 18:11:04;;;;;;;;;;;;;;;10.12;83.59;96200.75;5052502;28;1985;-60
2021/04/23 18:13:31;;;;;;;;;;;;;;;10.07;84.11;96200.00;5047487;28;1021;-60
2021/04/23 18:15:58;;;;;;;;;;;;;;;10.01;84.30;96198.53;5047267;28;1157;-60
2021/04/23 18:18:25;;;;;;;;;;;;;;;9.99;84.12;96185.81;5047446;28;1045;-61
2021/04/23 18:20:52;;;;;;;;;;;;;;;9.97;84.35;96194.91;5047282;28;1139;-60
2021/04/23 18:23:19;;;;;;;;;;;;;;;9.89;84.21;96196.25;5036770;28;899;-60
2021/04/23 18:25:47;;;;;;;;;;;;;;;9.82;84.72;96206.16;5033829;28;1082;-61
2021/04/23 18:28:14;;;;;;;;;;;;;;;9.63;85.53;96213.03;5034019;28;1473;-62
2021/04/23 18:30:40;;;;;;;;;;;;;;;9.58;86.72;96218.25;5033795;28;1902;-61
2021/04/23 18:33:07;;;;;;;;;;;;;;;9.52;86.13;96213.09;5033991;28;1495;-59
2021/04/23 18:35:34;;;;;;;;;;;;;;;9.45;86.74;96211.88;5034342;28;1219;-60
2021/04/23 18:38:02;;;;;;;;;;;;;;;9.41;86.82;96227.16;5033571;28;1124;-60
2021/04/23 18:40:28;;;;;;;;;;;;;;;9.19;88.04;96229.34;5033850;28;1149;-62
2021/04/23 18:42:55;;;;;;;;;;;;;;;9.07;88.46;96229.66;5033922;28;1002;-60
2021/04/23 18:45:23;;;;;;;;;;;;;;;9.08;88.20;96227.84;5033877;28;1013;-61
2021/04/23 18:47:49;;;;;;;;;;;;;;;9.10;87.70;96236.13;5033659;28;1077;-61
2021/04/23 18:50:17;;;;;;;;;;;;;;;9.03;87.12;96235.63;5033695;28;1898;-60
2021/04/23 18:52:43;;;;;;;;;;;;;;;9.02;87.30;96239.25;5033722;28;1057;-62
2021/04/23 18:55:11;;;;;;;;;;;;;;;8.96;86.49;96243.72;5033575;28;1621;-60
2021/04/23 18:57:38;;;;;;;;;;;;;;;8.87;86.85;96247.84;5033684;28;1512;-60
2021/04/23 19:00:06;;;;;;;;;;;;;;;8.87;87.08;96247.84;5033294;28;1066;-61
2021/04/23 19:02:32;;;;;;;;;;;;;;;8.80;87.19;96256.97;5033682;28;930;-61
2021/04/23 19:04:59;;;;;;;;;;;;;;;8.83;86.91;96256.41;5033388;28;1067;-60
2021/04/23 19:07:25;;;;;;;;;;;;;;;8.76;87.20;96268.91;5033212;28;1014;-60
2021/04/23 19:09:52;;;;;;;;;;;;;;;8.70;87.93;96272.53;5033201;28;1496;-60
2021/04/23 19:12:19;;;;;;;;;;;;;;;8.66;87.99;96266.31;5032799;28;1902;-60
2021/04/23 19:14:46;;;;;;;;;;;;;;;8.67;88.29;96273.06;5033296;28;1052;-61
2021/04/23 19:17:12;;;;;;;;;;;;;;;8.63;87.95;96272.78;5033104;28;1072;-61
2021/04/23 19:19:38;;;;;;;;;;;;;;;8.68;87.72;96274.59;5032954;28;973;-60
2021/04/23 19:22:05;;;;;;;;;;;;;;;8.67;88.26;96273.81;5032704;28;2048;-61
2021/04/23 19:24:31;;;;;;;;;;;;;;;8.64;88.15;96275.13;5033251;28;1070;-62
2021/04/23 19:27:03;;;;;;;;;;;;;;;8.78;86.98;96279.75;5032968;28;1478;-60
2021/04/23 19:29:31;;;;;;;;;;;;;;;8.77;86.81;96280.78;5032942;28;2375;-60
2021/04/23 19:31:57;;;;;;;;;;;;;;;8.75;87.15;96273.28;5032532;28;1914;-61
2021/04/23 19:34:25;;;;;;;;;;;;;;;8.81;86.26;96274.84;5031622;28;1133;-60
2021/04/23 19:36:51;;;;;;;;;;;;;;;8.68;86.84;96277.19;5032548;28;1029;-60
2021/04/23 19:39:18;;;;;;;;;;;;;;;8.74;85.76;96269.16;5032705;28;924;-60
2021/04/23 19:41:44;;;;;;;;;;;;;;;8.77;84.90;96265.25;5032958;28;1126;-60
2021/04/23 19:44:10;;;;;;;;;;;;;;;8.44;86.15;96254.41;5032382;28;1129;-62
2021/04/23 19:46:38;;;;;;;;;;;;;;;8.23;87.23;96258.00;5032463;28;1989;-61
2021/04/23 19:49:04;;;;;;;;;;;;;;;8.18;87.41;96256.19;5032542;28;1080;-61
2021/04/23 19:51:31;;;;;;;;;;;;;;;8.21;87.27;96262.69;5032076;28;1902;-60
2021/04/23 19:53:57;;;;;;;;;;;;;;;8.28;86.81;96252.06;5032196;28;1070;-61
2021/04/23 19:56:25;;;;;;;;;;;;;;;8.17;87.22;96259.03;5032360;28;983;-61
2021/04/23 19:58:53;;;;;;;;;;;;;;;8.05;87.90;96255.94;5032566;28;1633;-61
2021/04/23 20:01:19;;;;;;;;;;;;;;;8.00;88.60;96254.13;5032119;28;1082;-61
2021/04/23 20:03:46;;;;;;;;;;;;;;;7.91;88.60;96260.06;5031958;28;1078;-60
2021/04/23 20:06:13;;;;;;;;;;;;;;;7.75;89.30;96256.69;5032232;28;1002;-60
2021/04/23 20:08:39;;;;;;;;;;;;;;;7.68;89.44;96251.75;5032092;28;1484;-61
2021/04/23 20:11:06;;;;;;;;;;;;;;;7.67;90.14;96259.78;5031502;28;1983;-61
2021/04/23 20:13:32;;;;;;;;;;;;;;;7.56;90.80;96253.00;5032588;28;1707;-60
2021/04/23 20:15:58;;;;;;;;;;;;;;;7.37;91.31;96255.28;5032038;28;1633;-60
2021/04/23 20:18:25;;;;;;;;;;;;;;;7.35;91.85;96257.34;5031712;28;1278;-61
2021/04/23 20:20:52;;;;;;;;;;;;;;;7.33;92.34;96261.97;5032020;28;989;-60
2021/04/23 20:23:19;;;;;;;;;;;;;;;7.30;92.76;96257.31;5031898;28;1131;-61
2021/04/23 20:25:45;;;;;;;;;;;;;;;7.43;92.51;96259.44;5031990;28;1175;-62
2021/04/23 20:28:13;;;;;;;;;;;;;;;7.53;90.64;96254.28;5031913;28;1532;-61
2021/04/23 20:30:39;;;;;;;;;;;;;;;7.56;91.14;96258.97;5031570;28;1983;-61
2021/04/23 20:33:10;;;;;;;;;;;;;;;7.39;92.76;96252.44;5031563;28;1068;-60
2021/04/23 20:35:37;;;;;;;;;;;;;;;7.42;92.83;96251.94;5031809;28;1050;-61
2021/04/23 20:38:04;;;;;;;;;;;;;;;7.49;92.29;96252.47;5031670;28;974;-61
2021/04/23 20:40:31;;;;;;;;;;;;;;;7.44;92.24;96263.56;5031659;28;1073;-61
2021/04/23 20:42:57;;;;;;;;;;;;;;;7.47;91.72;96259.72;5031780;28;1517;-61
2021/04/23 20:45:24;;;;;;;;;;;;;;;7.46;91.55;96266.69;5031161;28;1281;-60
2021/04/23 20:47:52;;;;;;;;;;;;;;;7.46;90.14;96269.28;5031345;28;1918;-61
2021/04/23 20:50:19;;;;;;;;;;;;;;;7.49;89.33;96279.09;5031256;28;1967;-61
2021/04/23 20:52:46;;;;;;;;;;;;;;;7.51;88.45;96281.44;5031347;28;1485;-61
2021/04/23 20:55:14;;;;;;;;;;;;;;;7.63;87.48;96289.75;5031628;28;1078;-61
2021/04/23 20:57:40;;;;;;;;;;;;;;;7.55;85.30;96283.28;5031509;28;1226;-60
2021/04/23 21:00:08;;;;;;;;;;;;;;;7.72;84.04;96289.00;5031176;28;1133;-60
2021/04/23 21:02:35;;;;;;;;;;;;;;;7.66;84.95;96290.03;5031082;28;1101;-61
2021/04/23 21:05:02;;;;;;;;;;;;;;;7.62;85.22;96288.97;5031351;28;1038;-60
2021/04/23 21:07:28;;;;;;;;;;;;;;;7.56;86.12;96292.59;5031121;28;1157;-60
2021/04/23 21:09:55;;;;;;;;;;;;;;;7.45;86.47;96297.97;5031041;28;1258;-60
2021/04/23 21:12:22;;;;;;;;;;;;;;;7.52;85.92;96293.34;5030935;28;1960;-60
2021/04/23 21:14:48;;;;;;;;;;;;;;;7.68;84.11;96294.94;5031012;28;955;-61
2021/04/23 21:17:15;;;;;;;;;;;;;;;7.76;83.08;96303.00;5031183;28;1617;-60
2021/04/23 21:19:41;;;;;;;;;;;;;;;7.60;84.07;96296.22;5031070;28;1002;-61
2021/04/23 21:22:09;;;;;;;;;;;;;;;7.36;84.97;96300.28;5030973;28;1082;-61
2021/04/23 21:24:35;;;;;;;;;;;;;;;7.46;84.73;96305.50;5031153;28;1107;-60
2021/04/23 21:27:02;;;;;;;;;;;;;;;7.45;84.97;96308.31;5031054;28;1778;-61
2021/04/23 21:29:29;;;;;;;;;;;;;;;7.42;84.72;96308.84;5030920;28;1070;-61
2021/04/23 21:31:56;;;;;;;;;;;;;;;7.29;85.54;96310.84;5030985;28;1991;-60
2021/04/23 21:34:23;;;;;;;;;;;;;;;7.20;86.09;96304.59;5031011;28;966;-61
2021/04/23 21:36:49;;;;;;;;;;;;;;;7.13;86.51;96309.19;5030874;28;946;-61
2021/04/23 21:39:16;;;;;;;;;;;;;;;7.01;87.58;96302.69;5031245;28;1145;-60
2021/04/23 21:41:42;;;;;;;;;;;;;;;6.95;87.77;96308.84;5030780;28;1036;-61
2021/04/23 21:44:09;;;;;;;;;;;;;;;6.91;87.25;96309.34;5031226;28;1129;-61
2021/04/23 21:46:37;;;;;;;;;;;;;;;6.83;87.44;96316.78;5031089;28;1379;-60
2021/04/23 21:49:03;;;;;;;;;;;;;;;6.69;87.71;96313.84;5030913;28;1042;-60
2021/04/23 21:51:30;;;;;;;;;;;;;;;6.72;88.75;96315.16;5030647;28;1981;-61
2021/04/23 21:53:57;;;;;;;;;;;;;;;6.71;88.82;96316.19;5030803;28;1069;-60
2021/04/23 21:56:24;;;;;;;;;;;;;;;6.67;88.80;96308.16;5030682;28;1006;-60
2021/04/23 21:58:50;;;;;;;;;;;;;;;6.66;88.94;96305.81;5034070;28;1076;-60
2021/04/23 22:01:17;;;;;;;;;;;;;;;6.74;88.21;96311.28;5034492;28;1070;-61
2021/04/23 22:03:44;;;;;;;;;;;;;;;6.79;87.73;96308.75;5034474;28;976;-60
2021/04/23 22:06:11;;;;;;;;;;;;;;;6.88;86.77;96315.00;5034330;28;1145;-60
2021/04/23 22:08:38;;;;;;;;;;;;;;;6.90;87.11;96318.13;5034732;28;1535;-60
2021/04/23 22:11:04;;;;;;;;;;;;;;;6.85;86.45;96315.50;5034016;28;1899;-60
2021/04/23 22:13:31;;;;;;;;;;;;;;;6.65;86.89;96309.44;5034835;28;1029;-62
2021/04/23 22:15:57;;;;;;;;;;;;;;;6.69;87.46;96310.47;5034472;28;1156;-59
2021/04/23 22:18:23;;;;;;;;;;;;;;;6.71;87.26;96304.06;5034435;28;1156;-59
2021/04/23 22:20:51;;;;;;;;;;;;;;;6.63;87.50;96307.09;5034742;28;977;-60
2021/04/23 22:23:18;;;;;;;;;;;;;;;6.62;87.80;96313.28;5034340;28;1092;-61
2021/04/23 22:25:44;;;;;;;;;;;;;;;6.65;87.61;96307.63;5034236;28;1070;-60
2021/04/23 22:28:10;;;;;;;;;;;;;;;6.66;87.95;96311.00;5034203;28;1090;-60
2021/04/23 22:30:37;;;;;;;;;;;;;;;6.66;87.22;96319.53;5034327;28;1981;-60
2021/04/23 22:33:04;;;;;;;;;;;;;;;6.49;88.13;96322.22;5034177;28;1066;-59
2021/04/23 22:35:31;;;;;;;;;;;;;;;6.46;87.79;96306.47;5034118;28;1078;-60
2021/04/23 22:38:00;;;;;;;;;;;;;;;6.51;86.80;96309.06;5034548;28;1013;-61
2021/04/23 22:40:27;;;;;;;;;;;;;;;6.48;86.89;96309.56;5033992;28;1121;-61
2021/04/23 22:42:53;;;;;;;;;;;;;;;6.34;87.17;96309.19;5034325;28;1288;-61
2021/04/23 22:45:20;;;;;;;;;;;;;;;6.24;86.79;96314.28;5034116;28;1276;-60
2021/04/23 22:47:47;;;;;;;;;;;;;;;6.17;87.51;96310.34;5034063;28;1258;-60
2021/04/23 22:50:14;;;;;;;;;;;;;;;6.01;87.71;96299.09;5033859;28;1069;-61
2021/04/23 22:52:41;;;;;;;;;;;;;;;5.98;88.32;96300.34;5033810;28;1898;-60
2021/04/23 22:55:10;;;;;;;;;;;;;;;5.95;88.56;96306.00;5033957;28;800;-60
2021/04/23 22:57:37;;;;;;;;;;;;;;;5.83;89.49;96307.16;5033915;28;1022;-61
2021/04/23 23:00:07;;;;;;;;;;;;;;;5.83;89.66;96299.41;5033464;28;1313;-60
2021/04/23 23:02:33;;;;;;;;;;;;;;;5.89;88.85;96295.88;5033495;28;1078;-62
2021/04/23 23:04:59;;;;;;;;;;;;;;;5.84;89.53;96288.84;5033456;28;1077;-60
2021/04/23 23:07:27;;;;;;;;;;;;;;;5.74;90.43;96291.31;5033522;28;1725;-61
2021/04/23 23:09:53;;;;;;;;;;;;;;;5.72;89.91;96280.47;5033432;28;1302;-61
2021/04/23 23:12:20;;;;;;;;;;;;;;;5.68;90.28;96284.53;5033166;28;1942;-60
2021/04/23 23:14:47;;;;;;;;;;;;;;;5.76;89.78;96278.97;5033516;28;996;-59
2021/04/23 23:17:13;;;;;;;;;;;;;;;5.72;90.36;96283.06;5033311;28;1426;-61
2021/04/23 23:19:39;;;;;;;;;;;;;;;5.69;90.39;96278.38;5033143;28;1141;-60
2021/04/23 23:22:06;;;;;;;;;;;;;;;5.66;91.01;96281.44;5033063;28;1125;-60
2021/04/23 23:24:32;;;;;;;;;;;;;;;5.56;91.59;96276.19;5033177;28;1061;-60
2021/04/23 23:26:59;;;;;;;;;;;;;;;5.50;91.40;96272.00;5033025;28;1090;-59
2021/04/23 23:29:26;;;;;;;;;;;;;;;5.53;92.09;96282.59;5033207;28;974;-61
2021/04/23 23:31:52;;;;;;;;;;;;;;;5.54;91.53;96276.41;5032975;28;1984;-60
2021/04/23 23:34:18;;;;;;;;;;;;;;;5.41;92.43;96274.22;5033002;28;1278;-60
2021/04/23 23:36:45;;;;;;;;;;;;;;;5.50;92.94;96272.00;5032877;28;1082;-60
2021/04/23 23:39:11;;;;;;;;;;;;;;;5.60;91.77;96272.09;5033041;28;1180;-60
2021/04/23 23:41:38;;;;;;;;;;;;;;;5.58;92.54;96268.97;5032776;28;1086;-59
2021/04/23 23:44:04;;;;;;;;;;;;;;;5.62;91.82;96267.50;5032867;28;1605;-60
2021/04/23 23:46:32;;;;;;;;;;;;;;;5.73;91.49;96268.38;5032961;28;1281;-60
2021/04/23 23:48:58;;;;;;;;;;;;;;;5.66;91.60;96276.28;5032558;28;1074;-61
2021/04/23 23:51:24;;;;;;;;;;;;;;;5.72;91.62;96262.44;5032809;28;1985;-60
2021/04/23 23:53:51;;;;;;;;;;;;;;;5.71;91.08;96266.03;5032629;28;1078;-60
2021/04/23 23:56:17;;;;;;;;;;;;;;;5.65;90.88;96259.25;5032451;28;1070;-60
2021/04/23 23:58:44;;;;;;;;;;;;;;;5.62;91.53;96264.91;5032430;28;1319;-59
